Time;durP1;ratioP1;P1;durP2;ratioP2;P2;SDS_P1;SDS_P2;PMS_P1;PMS_P2;Temp;Humidity;BMP_temperature;BMP_pressure;BME280_temperature;BME280_humidity;BME280_pressure;Samples;Min_cycle;Max_cycle;Signal;HPM_P1;HPM_P2
2021/09/24 00:01:08;;;;;;;13.48;9.55;;;;;;;12.81;100.00;99653.91;5074655;28;20528;-73
2021/09/24 00:03:34;;;;;;;10.43;8.98;;;;;;;12.70;100.00;99651.03;5074426;28;20198;-73
2021/09/24 00:06:01;;;;;;;12.48;10.40;;;;;;;12.51;100.00;99651.41;5074591;28;20189;-73
2021/09/24 00:08:28;;;;;;;10.27;8.98;;;;;;;12.48;100.00;99649.78;5074399;28;20221;-73
2021/09/24 00:10:56;;;;;;;9.40;8.32;;;;;;;12.52;100.00;99655.81;5074756;28;20198;-73
2021/09/24 00:13:23;;;;;;;11.88;9.43;;;;;;;12.43;100.00;99657.28;5075013;28;20612;-73
2021/09/24 00:15:50;;;;;;;11.48;10.27;;;;;;;12.40;100.00;99656.63;5074778;28;20205;-73
2021/09/24 00:18:18;;;;;;;11.18;9.80;;;;;;;12.56;100.00;99651.09;5074723;28;20188;-72
2021/09/24 00:20:45;;;;;;;11.52;9.63;;;;;;;12.75;100.00;99650.75;5074131;28;20204;-72
2021/09/24 00:23:12;;;;;;;12.07;10.45;;;;;;;12.78;100.00;99661.38;5074604;28;20194;-72
2021/09/24 00:25:39;;;;;;;11.25;9.77;;;;;;;12.80;100.00;99659.41;5074610;28;20185;-72
2021/09/24 00:28:08;;;;;;;12.02;9.43;;;;;;;12.55;100.00;99658.34;5074071;28;20226;-72
2021/09/24 00:30:35;;;;;;;12.95;9.60;;;;;;;12.41;100.00;99664.63;5074135;28;20196;-73
2021/09/24 00:33:02;;;;;;;11.07;9.98;;;;;;;12.53;100.00;99652.16;5074441;28;20293;-73
2021/09/24 00:35:30;;;;;;;11.13;9.65;;;;;;;12.39;100.00;99662.97;5074042;28;20197;-72
2021/09/24 00:37:57;;;;;;;10.15;8.93;;;;;;;12.35;100.00;99661.47;5073786;28;20213;-72
2021/09/24 00:40:23;;;;;;;10.70;9.15;;;;;;;12.50;100.00;99657.75;5074039;28;20205;-72
2021/09/24 00:42:50;;;;;;;14.02;9.82;;;;;;;12.61;100.00;99652.53;5073754;28;20280;-72
2021/09/24 00:45:17;;;;;;;13.65;9.55;;;;;;;12.62;100.00;99643.47;5074180;28;20307;-72
2021/09/24 00:47:43;;;;;;;10.63;9.55;;;;;;;12.52;100.00;99635.06;5073617;28;20652;-73
2021/09/24 00:50:10;;;;;;;10.52;9.52;;;;;;;12.40;100.00;99640.44;5073637;28;20181;-73
2021/09/24 00:52:39;;;;;;;11.35;8.98;;;;;;;12.25;100.00;99634.19;5073983;28;20208;-73
2021/09/24 00:55:07;;;;;;;15.20;9.60;;;;;;;12.21;100.00;99633.53;5073663;28;20280;-74
2021/09/24 00:57:34;;;;;;;11.73;10.07;;;;;;;12.09;100.00;99631.59;5073614;28;20204;-73
2021/09/24 01:00:01;;;;;;;10.80;9.38;;;;;;;12.06;100.00;99629.09;5073515;28;20203;-73
2021/09/24 01:02:28;;;;;;;12.68;10.30;;;;;;;12.13;100.00;99638.53;5074022;28;20212;-73
2021/09/24 01:04:54;;;;;;;10.98;9.77;;;;;;;12.25;100.00;99632.34;5073748;28;20304;-73
2021/09/24 01:07:21;;;;;;;13.45;10.05;;;;;;;12.26;100.00;99626.00;5073979;28;20242;-73
2021/09/24 01:09:49;;;;;;;12.00;9.50;;;;;;;12.32;100.00;99624.72;5073760;28;20566;-73
2021/09/24 01:12:16;;;;;;;12.93;9.20;;;;;;;12.33;100.00;99620.19;5073601;28;20916;-74
2021/09/24 01:14:42;;;;;;;12.48;9.30;;;;;;;12.21;100.00;99619.13;5073571;28;20994;-73
2021/09/24 01:17:09;;;;;;;12.00;9.82;;;;;;;12.30;100.00;99616.72;5073320;28;20205;-74
2021/09/24 01:19:36;;;;;;;10.45;9.07;;;;;;;12.56;100.00;99614.16;5073907;28;20184;-73
2021/09/24 01:22:05;;;;;;;12.02;9.68;;;;;;;12.55;100.00;99616.94;5073657;28;20204;-73
2021/09/24 01:24:32;;;;;;;12.25;10.15;;;;;;;12.65;99.68;99605.44;5073281;28;20182;-73
2021/09/24 01:26:58;;;;;;;9.80;8.80;;;;;;;12.41;100.00;99612.44;5073570;28;20347;-74
2021/09/24 01:29:27;;;;;;;12.50;10.45;;;;;;;12.19;100.00;99613.84;5073694;28;20291;-73
2021/09/24 01:31:54;;;;;;;13.25;10.30;;;;;;;12.00;100.00;99616.84;5073555;28;20204;-73
2021/09/24 01:34:21;;;;;;;11.05;9.63;;;;;;;11.99;100.00;99606.19;5073168;28;20201;-73
2021/09/24 01:36:47;;;;;;;11.23;10.05;;;;;;;11.97;100.00;99610.81;5072785;28;20582;-73
2021/09/24 01:39:15;;;;;;;10.88;9.45;;;;;;;11.97;100.00;99610.81;5073484;28;20186;-74
2021/09/24 01:41:44;;;;;;;14.68;10.55;;;;;;;11.99;100.00;99614.28;5073381;28;20207;-73
2021/09/24 01:44:10;;;;;;;13.07;10.68;;;;;;;11.88;100.00;99607.72;5073145;28;20197;-73
2021/09/24 01:46:38;;;;;;;12.10;9.10;;;;;;;11.87;100.00;99608.69;5072811;28;20204;-73
2021/09/24 01:49:05;;;;;;;10.68;9.55;;;;;;;11.91;100.00;99613.88;5072979;28;20224;-72
2021/09/24 01:51:33;;;;;;;11.98;9.00;;;;;;;12.04;100.00;99610.31;5073483;28;20641;-73
2021/09/24 01:53:59;;;;;;;10.75;9.35;;;;;;;12.07;100.00;99609.22;5073224;28;20181;-73
2021/09/24 01:56:27;;;;;;;10.57;9.20;;;;;;;11.92;100.00;99612.91;5073088;28;20177;-73
2021/09/24 01:58:54;;;;;;;12.88;9.73;;;;;;;11.80;100.00;99614.53;5073281;28;20218;-73
2021/09/24 02:01:20;;;;;;;12.18;10.40;;;;;;;11.95;100.00;99619.00;5072917;28;20189;-73
2021/09/24 02:03:47;;;;;;;12.00;9.05;;;;;;;11.92;100.00;99615.59;5073075;28;20185;-73
2021/09/24 02:06:14;;;;;;;14.52;9.57;;;;;;;12.00;100.00;99616.84;5073135;28;20203;-73
2021/09/24 02:08:40;;;;;;;10.95;9.35;;;;;;;12.14;100.00;99618.66;5073068;28;20314;-73
2021/09/24 02:11:10;;;;;;;10.35;9.07;;;;;;;12.22;100.00;99607.41;5076827;28;20188;-73
2021/09/24 02:13:38;;;;;;;12.30;8.70;;;;;;;12.38;100.00;99604.56;5077564;28;20258;-74
2021/09/24 02:16:05;;;;;;;12.02;9.45;;;;;;;12.41;100.00;99605.22;5076948;28;20188;-73
2021/09/24 02:18:32;;;;;;;16.17;10.75;;;;;;;12.50;98.39;99609.13;5077071;28;20543;-74
2021/09/24 02:20:58;;;;;;;12.70;9.50;;;;;;;12.60;97.62;99612.97;5076976;28;20200;-73
2021/09/24 02:23:25;;;;;;;11.60;10.40;;;;;;;12.53;97.21;99606.25;5076913;28;20660;-73
2021/09/24 02:25:52;;;;;;;14.73;11.38;;;;;;;12.53;97.29;99617.06;5076942;28;20204;-73
2021/09/24 02:28:18;;;;;;;14.75;11.35;;;;;;;12.54;96.76;99618.78;5076959;28;20184;-73
2021/09/24 02:30:46;;;;;;;12.80;10.32;;;;;;;12.54;96.43;99617.91;5076556;28;20202;-73
2021/09/24 02:33:13;;;;;;;11.57;9.50;;;;;;;12.58;95.85;99619.47;5076691;28;20861;-73
2021/09/24 02:35:40;;;;;;;10.65;8.77;;;;;;;12.47;95.62;99628.25;5076424;28;20243;-73
2021/09/24 02:38:06;;;;;;;13.13;9.60;;;;;;;12.25;97.32;99624.25;5076728;28;20287;-73
2021/09/24 02:40:33;;;;;;;11.00;9.90;;;;;;;12.29;97.69;99625.78;5076514;28;20236;-73
2021/09/24 02:43:00;;;;;;;13.57;8.85;;;;;;;12.41;96.41;99620.53;5076252;28;20275;-73
2021/09/24 02:45:26;;;;;;;9.93;7.72;;;;;;;12.26;97.04;99619.72;5076344;28;20178;-73
2021/09/24 02:47:54;;;;;;;12.10;9.02;;;;;;;12.43;95.74;99624.03;5076165;28;20227;-73
2021/09/24 02:50:21;;;;;;;10.80;8.48;;;;;;;12.31;96.43;99620.28;5075478;28;20300;-73
2021/09/24 02:52:48;;;;;;;14.85;8.90;;;;;;;12.35;96.64;99616.44;5075928;28;20186;-72
2021/09/24 02:55:15;;;;;;;12.50;8.93;;;;;;;12.38;96.20;99616.22;5076164;28;20296;-72
2021/09/24 02:57:42;;;;;;;10.40;9.00;;;;;;;12.36;96.21;99618.16;5076326;28;20527;-72
2021/09/24 03:00:10;;;;;;;11.90;8.75;;;;;;;12.34;96.93;99619.22;5075539;28;20185;-72
2021/09/24 03:02:36;;;;;;;13.73;9.00;;;;;;;12.38;96.46;99618.06;5076028;28;20310;-74
2021/09/24 03:05:06;;;;;;;11.55;9.27;;;;;;;12.29;97.37;99609.59;5075965;28;20220;-74
2021/09/24 03:07:33;;;;;;;11.35;9.60;;;;;;;12.31;97.54;99613.06;5076223;28;20200;-74
2021/09/24 03:09:59;;;;;;;9.93;8.70;;;;;;;12.31;97.38;99615.75;5075741;28;20212;-73
2021/09/24 03:12:26;;;;;;;10.50;8.40;;;;;;;12.25;98.06;99610.75;5075633;28;20185;-74
2021/09/24 03:14:52;;;;;;;11.00;9.07;;;;;;;12.28;97.99;99607.88;5075941;28;20229;-74
2021/09/24 03:17:19;;;;;;;13.77;9.35;;;;;;;12.39;96.84;99611.69;5076153;28;20191;-73
2021/09/24 03:19:46;;;;;;;13.10;10.10;;;;;;;12.31;97.08;99607.66;5075949;28;20192;-73
2021/09/24 03:22:14;;;;;;;13.80;9.55;;;;;;;12.20;97.12;99604.78;5075151;28;20228;-74
2021/09/24 03:24:41;;;;;;;29.17;12.93;;;;;;;12.27;97.34;99606.13;5075703;28;20296;-73
2021/09/24 03:27:08;;;;;;;15.52;9.50;;;;;;;12.33;96.56;99604.88;5075465;28;20190;-72
2021/09/24 03:29:35;;;;;;;13.82;11.65;;;;;;;12.27;96.66;99606.13;5075220;28;20209;-72
2021/09/24 03:32:02;;;;;;;15.82;9.60;;;;;;;12.29;96.48;99603.31;5075339;28;20192;-71
2021/09/24 03:34:29;;;;;;;16.10;10.52;;;;;;;12.42;95.20;99606.09;5075458;28;20624;-74
2021/09/24 03:36:56;;;;;;;13.88;11.27;;;;;;;12.44;94.55;99609.56;5074980;28;20231;-74
2021/09/24 03:39:24;;;;;;;12.27;10.40;;;;;;;12.36;94.49;99607.34;5075035;28;20296;-73
2021/09/24 03:41:52;;;;;;;12.35;10.55;;;;;;;12.31;94.48;99610.34;5075630;28;20197;-72
2021/09/24 03:44:18;;;;;;;17.50;12.13;;;;;;;12.31;94.97;99609.50;5075430;28;20209;-72
2021/09/24 03:46:45;;;;;;;15.25;10.75;;;;;;;12.47;93.36;99615.63;5075230;28;20288;-73
2021/09/24 03:49:12;;;;;;;13.35;11.30;;;;;;;12.32;94.34;99611.22;5075419;28;20311;-74
2021/09/24 03:51:39;;;;;;;13.02;9.88;;;;;;;12.43;93.16;99600.56;5075256;28;20579;-74
2021/09/24 03:54:06;;;;;;;13.65;11.75;;;;;;;12.23;95.24;99611.81;5074849;28;20185;-74
2021/09/24 03:56:34;;;;;;;12.35;10.45;;;;;;;12.04;96.82;99614.84;5075218;28;20202;-73
2021/09/24 03:59:00;;;;;;;12.30;10.60;;;;;;;12.12;96.59;99609.81;5074540;28;20277;-72
2021/09/24 04:01:27;;;;;;;15.35;10.05;;;;;;;12.06;97.39;99610.22;5074966;28;20619;-71
2021/09/24 04:03:53;;;;;;;16.33;9.95;;;;;;;12.05;97.33;99605.75;5075196;28;20200;-72
2021/09/24 04:06:20;;;;;;;12.73;9.73;;;;;;;12.05;97.04;99603.97;5075177;28;20279;-73
2021/09/24 04:08:47;;;;;;;11.13;9.25;;;;;;;12.08;97.25;99609.16;5074835;28;20200;-72
2021/09/24 04:11:13;;;;;;;11.10;9.43;;;;;;;11.94;97.74;99603.78;5075004;28;20696;-72
2021/09/24 04:13:41;;;;;;;13.18;10.18;;;;;;;11.94;98.19;99605.59;5074700;28;20200;-72
2021/09/24 04:16:08;;;;;;;19.55;9.60;;;;;;;11.94;98.43;99616.38;5074805;28;20537;-72
2021/09/24 04:18:34;;;;;;;17.48;11.27;;;;;;;11.97;98.21;99613.50;5074776;28;20206;-73
2021/09/24 04:21:01;;;;;;;11.57;9.70;;;;;;;11.93;98.64;99612.81;5074357;28;20184;-72
2021/09/24 04:23:27;;;;;;;11.70;9.88;;;;;;;11.83;98.68;99607.13;5074066;28;20195;-72
2021/09/24 04:25:54;;;;;;;14.52;12.05;;;;;;;11.76;99.57;99605.78;5074386;28;20664;-72
2021/09/24 04:28:21;;;;;;;13.35;10.70;;;;;;;11.74;99.78;99607.69;5074305;28;20200;-73
2021/09/24 04:30:49;;;;;;;14.40;11.43;;;;;;;11.76;99.85;99605.78;5074502;28;20667;-73
2021/09/24 04:33:15;;;;;;;16.17;12.48;;;;;;;11.69;100.00;99612.53;5074401;28;20545;-72
2021/09/24 04:35:42;;;;;;;14.25;10.90;;;;;;;11.84;99.44;99607.97;5073937;28;20323;-73
2021/09/24 04:38:09;;;;;;;14.25;10.52;;;;;;;11.97;97.86;99600.88;5074503;28;20185;-73
2021/09/24 04:40:35;;;;;;;11.25;9.60;;;;;;;11.95;97.90;99612.72;5074739;28;20180;-73
2021/09/24 04:43:02;;;;;;;13.93;11.15;;;;;;;12.02;96.39;99606.84;5073962;28;20207;-73
2021/09/24 04:45:29;;;;;;;15.77;12.80;;;;;;;12.02;96.79;99612.22;5073841;28;20263;-72
2021/09/24 04:47:57;;;;;;;19.15;10.43;;;;;;;12.10;96.25;99612.63;5074062;28;20228;-73
2021/09/24 04:50:24;;;;;;;17.15;10.77;;;;;;;12.06;95.96;99613.78;5073640;28;20204;-73
2021/09/24 04:52:50;;;;;;;15.00;11.93;;;;;;;12.02;95.87;99612.22;5073550;28;20585;-72
2021/09/24 04:55:17;;;;;;;17.60;13.32;;;;;;;12.01;96.25;99615.06;5073543;28;20204;-73
2021/09/24 04:57:43;;;;;;;14.85;11.88;;;;;;;12.07;95.79;99617.34;5073791;28;20337;-75
2021/09/24 05:00:12;;;;;;;23.95;14.38;;;;;;;12.00;96.13;99619.56;5073324;28;20192;-75
2021/09/24 05:02:39;;;;;;;24.60;15.75;;;;;;;11.91;95.68;99619.28;5073463;28;20276;-74
2021/09/24 05:05:09;;;;;;;18.23;11.68;;;;;;;11.85;96.86;99617.81;5073484;28;20641;-74
2021/09/24 05:07:36;;;;;;;15.88;10.82;;;;;;;11.80;96.45;99618.09;5073171;28;20299;-74
2021/09/24 05:10:04;;;;;;;15.15;10.32;;;;;;;11.84;96.08;99621.47;5073327;28;20211;-74
2021/09/24 05:12:31;;;;;;;23.67;11.43;;;;;;;11.65;96.59;99614.53;5073247;28;20203;-74
2021/09/24 05:14:58;;;;;;;15.60;11.63;;;;;;;11.74;96.74;99626.56;5073168;28;20204;-73
2021/09/24 05:17:25;;;;;;;19.52;11.18;;;;;;;11.64;97.52;99620.00;5072866;28;20185;-74
2021/09/24 05:19:51;;;;;;;26.92;24.13;;;;;;;11.63;98.13;99619.16;5073216;28;20711;-74
2021/09/24 05:22:19;;;;;;;17.60;11.93;;;;;;;11.59;98.89;99622.13;5072970;28;20184;-74
2021/09/24 05:24:46;;;;;;;12.02;10.60;;;;;;;11.61;99.44;99620.22;5073081;28;20212;-74
2021/09/24 05:27:13;;;;;;;14.88;11.27;;;;;;;11.58;100.00;99609.63;5072556;28;20192;-74
2021/09/24 05:29:40;;;;;;;13.40;10.43;;;;;;;11.80;98.86;99617.22;5072991;28;20248;-75
2021/09/24 05:32:08;;;;;;;13.10;10.40;;;;;;;11.85;98.14;99615.13;5072594;28;20181;-72
2021/09/24 05:34:35;;;;;;;17.40;11.25;;;;;;;11.90;96.98;99618.41;5072696;28;20204;-74
2021/09/24 05:37:01;;;;;;;16.13;11.40;;;;;;;11.84;97.65;99622.31;5072159;28;20547;-73
2021/09/24 05:39:29;;;;;;;16.27;10.90;;;;;;;11.80;98.82;99610.03;5072563;28;20197;-73
2021/09/24 05:41:56;;;;;;;17.42;11.98;;;;;;;11.78;99.03;99613.75;5072859;28;20250;-75
2021/09/24 05:44:23;;;;;;;14.38;11.20;;;;;;;11.91;99.07;99612.03;5072025;28;20185;-74
2021/09/24 05:46:49;;;;;;;17.40;11.57;;;;;;;11.83;99.44;99614.34;5072425;28;20585;-74
2021/09/24 05:49:16;;;;;;;17.05;11.63;;;;;;;11.98;98.63;99608.00;5071899;28;20287;-74
2021/09/24 05:51:42;;;;;;;16.52;12.40;;;;;;;12.05;97.44;99609.34;5072607;28;20200;-74
2021/09/24 05:54:09;;;;;;;17.38;12.98;;;;;;;12.15;96.95;99612.31;5072271;28;20191;-73
2021/09/24 05:56:37;;;;;;;21.48;13.07;;;;;;;12.18;97.14;99619.34;5072035;28;20240;-72
2021/09/24 05:59:04;;;;;;;22.70;13.35;;;;;;;12.16;97.00;99624.84;5072517;28;20292;-72
2021/09/24 06:01:31;;;;;;;19.88;14.20;;;;;;;12.16;97.20;99618.56;5072090;28;20214;-73
2021/09/24 06:03:57;;;;;;;21.85;13.82;;;;;;;12.18;96.19;99624.75;5072703;28;20690;-73
2021/09/24 06:06:24;;;;;;;21.70;13.10;;;;;;;12.16;97.53;99626.69;5072395;28;20299;-74
2021/09/24 06:08:50;;;;;;;18.35;12.38;;;;;;;12.06;98.02;99615.63;5072412;28;20310;-74
2021/09/24 06:11:17;;;;;;;22.60;13.55;;;;;;;12.01;97.81;99629.41;5072176;28;20221;-74
2021/09/24 06:13:45;;;;;;;22.67;13.93;;;;;;;12.00;98.71;99622.25;5072577;28;20195;-74
2021/09/24 06:16:12;;;;;;;28.27;15.68;;;;;;;12.22;97.49;99618.19;5072354;28;20193;-73
2021/09/24 06:18:39;;;;;;;19.83;12.68;;;;;;;12.24;96.85;99627.91;5072395;28;20287;-74
2021/09/24 06:21:05;;;;;;;19.80;12.23;;;;;;;12.21;96.71;99628.13;5072250;28;20182;-73
2021/09/24 06:23:32;;;;;;;19.77;13.45;;;;;;;12.23;97.62;99619.91;5072471;28;20191;-73
2021/09/24 06:25:59;;;;;;;20.23;13.10;;;;;;;12.29;97.38;99620.38;5069867;28;20301;-74
2021/09/24 06:28:26;;;;;;;18.10;12.48;;;;;;;12.35;97.75;99623.66;5071953;28;20198;-74
2021/09/24 06:30:54;;;;;;;20.55;12.25;;;;;;;12.56;96.20;99624.94;5071577;28;20220;-74
2021/09/24 06:33:21;;;;;;;18.13;13.13;;;;;;;12.87;92.84;99625.63;5069613;28;20201;-74
2021/09/24 06:35:48;;;;;;;17.80;12.27;;;;;;;13.11;91.30;99632.06;5071217;28;20326;-72
2021/09/24 06:38:14;;;;;;;17.05;12.95;;;;;;;13.07;90.80;99627.84;5071350;28;20193;-72
2021/09/24 06:40:41;;;;;;;19.30;13.15;;;;;;;13.16;90.91;99623.66;5071162;28;20186;-72
2021/09/24 06:43:09;;;;;;;20.10;13.00;;;;;;;13.37;89.38;99629.44;5071217;28;20201;-73
2021/09/24 06:45:36;;;;;;;16.17;12.00;;;;;;;13.50;88.34;99627.63;5071475;28;20191;-73
2021/09/24 06:48:05;;;;;;;18.40;13.20;;;;;;;13.62;87.92;99634.00;5072077;28;20195;-72
2021/09/24 06:50:32;;;;;;;18.73;12.05;;;;;;;13.59;87.84;99633.34;5071210;28;20208;-73
2021/09/24 06:52:58;;;;;;;24.08;13.43;;;;;;;13.50;88.38;99627.63;5070930;28;20190;-73
2021/09/24 06:55:25;;;;;;;22.95;13.18;;;;;;;13.46;88.74;99631.50;5071513;28;20508;-74
2021/09/24 06:57:53;;;;;;;23.08;12.00;;;;;;;13.56;88.82;99627.16;5074724;28;20631;-72
2021/09/24 07:00:20;;;;;;;21.98;13.07;;;;;;;13.53;88.91;99621.97;5075038;28;20189;-72
2021/09/24 07:02:46;;;;;;;16.55;11.02;;;;;;;13.71;87.73;99624.38;5074887;28;20197;-73
2021/09/24 07:05:14;;;;;;;20.42;12.80;;;;;;;13.55;89.13;99620.03;5073292;28;20209;-73
2021/09/24 07:07:42;;;;;;;20.05;12.85;;;;;;;13.38;90.59;99623.03;5074801;28;20225;-73
2021/09/24 07:10:09;;;;;;;19.92;12.30;;;;;;;13.26;92.06;99618.47;5074840;28;20202;-72
2021/09/24 07:12:36;;;;;;;18.48;12.68;;;;;;;13.39;91.84;99619.38;5074449;28;20190;-73
2021/09/24 07:15:03;;;;;;;18.90;11.82;;;;;;;13.48;91.35;99620.59;5075007;28;20200;-73
2021/09/24 07:17:30;;;;;;;15.38;11.45;;;;;;;13.48;91.91;99621.44;5075050;28;20297;-72
2021/09/24 07:19:57;;;;;;;15.73;12.45;;;;;;;13.77;89.75;99622.09;5074707;28;20523;-73
2021/09/24 07:22:26;;;;;;;20.45;12.75;;;;;;;13.78;89.89;99620.25;5075087;28;20660;-73
2021/09/24 07:24:54;;;;;;;16.48;12.05;;;;;;;13.80;89.52;99626.44;5073744;28;20519;-72
2021/09/24 07:27:21;;;;;;;19.20;14.73;;;;;;;13.95;89.08;99627.16;5071738;28;20270;-73
2021/09/24 07:29:49;;;;;;;18.08;12.10;;;;;;;14.25;86.66;99623.25;5063420;28;20209;-74
2021/09/24 07:32:16;;;;;;;20.42;11.40;;;;;;;14.32;85.48;99630.78;5058089;28;20209;-74
2021/09/24 07:34:43;;;;;;;19.17;11.68;;;;;;;14.29;85.75;99625.59;5074478;28;20288;-74
2021/09/24 07:37:10;;;;;;;16.15;11.77;;;;;;;14.42;85.51;99633.69;5073799;28;20342;-74
2021/09/24 07:39:38;;;;;;;19.85;14.40;;;;;;;14.44;85.76;99641.69;5073844;28;20202;-72
2021/09/24 07:42:05;;;;;;;20.25;14.20;;;;;;;14.53;84.98;99641.03;5073820;28;20222;-72
2021/09/24 07:44:32;;;;;;;18.80;12.90;;;;;;;14.44;85.33;99641.69;5076946;28;20204;-72
2021/09/24 07:46:59;;;;;;;20.35;13.10;;;;;;;14.46;85.53;99639.75;5074008;28;20192;-73
2021/09/24 07:49:26;;;;;;;21.25;13.93;;;;;;;14.52;85.79;99645.59;5073433;28;20653;-73
2021/09/24 07:51:53;;;;;;;18.98;12.77;;;;;;;14.44;85.84;99639.84;5073418;28;20244;-73
2021/09/24 07:54:21;;;;;;;14.88;13.23;;;;;;;14.59;85.82;99637.91;5074205;28;20206;-73
2021/09/24 07:56:50;;;;;;;15.27;12.68;;;;;;;14.71;85.13;99641.53;5073580;28;20205;-72
2021/09/24 07:59:17;;;;;;;20.60;13.10;;;;;;;14.80;84.64;99649.84;5073781;28;20202;-73
2021/09/24 08:01:43;;;;;;;16.58;13.40;;;;;;;14.93;84.24;99644.38;5073847;28;20677;-73
2021/09/24 08:04:10;;;;;;;18.38;13.05;;;;;;;15.05;83.55;99642.56;5073095;28;20189;-73
2021/09/24 08:06:37;;;;;;;16.83;12.50;;;;;;;15.27;82.52;99643.66;5073567;28;20196;-74
2021/09/24 08:09:04;;;;;;;21.83;13.35;;;;;;;15.37;81.54;99645.50;5073696;28;20291;-73
2021/09/24 08:11:30;;;;;;;18.33;11.85;;;;;;;15.59;80.22;99639.28;5073182;28;20224;-73
2021/09/24 08:13:58;;;;;;;14.77;11.55;;;;;;;15.81;79.05;99640.34;5072533;28;20283;-72
2021/09/24 08:16:25;;;;;;;16.10;12.32;;;;;;;15.86;77.85;99651.72;5073192;28;20315;-73
2021/09/24 08:18:52;;;;;;;16.67;11.80;;;;;;;16.08;77.36;99644.53;5073362;28;20710;-73
2021/09/24 08:21:20;;;;;;;15.93;11.82;;;;;;;16.14;76.49;99642.22;5073031;28;20291;-74
2021/09/24 08:23:47;;;;;;;14.63;12.07;;;;;;;16.12;76.98;99648.75;5072739;28;20279;-72
2021/09/24 08:26:14;;;;;;;16.27;12.45;;;;;;;15.99;77.57;99641.59;5072838;28;20279;-73
2021/09/24 08:28:40;;;;;;;16.85;13.00;;;;;;;16.02;77.68;99643.22;5072837;28;20237;-73
2021/09/24 08:31:08;;;;;;;14.00;11.57;;;;;;;16.00;77.78;99635.16;5072454;28;20216;-73
2021/09/24 08:33:35;;;;;;;14.15;12.20;;;;;;;16.10;77.61;99635.31;5073024;28;20188;-74
2021/09/24 08:36:01;;;;;;;14.35;11.90;;;;;;;16.24;77.12;99636.91;5072244;28;20252;-73
2021/09/24 08:38:28;;;;;;;13.90;10.70;;;;;;;16.54;76.21;99643.53;5074107;28;20221;-74
2021/09/24 08:40:55;;;;;;;20.80;14.48;;;;;;;16.72;75.01;99650.19;5073171;28;20594;-73
2021/09/24 08:43:21;;;;;;;13.55;11.32;;;;;;;16.86;74.11;99639.03;5073274;28;20271;-73
2021/09/24 08:45:48;;;;;;;17.67;13.07;;;;;;;17.04;73.82;99638.50;5073005;28;20291;-73
2021/09/24 08:48:17;;;;;;;17.40;11.70;;;;;;;16.83;74.30;99642.03;5072974;28;20279;-74
2021/09/24 08:50:45;;;;;;;15.40;11.45;;;;;;;16.88;74.60;99634.34;5068386;28;20266;-74
2021/09/24 08:53:14;;;;;;;15.38;11.88;;;;;;;17.04;74.44;99630.34;5072960;28;20651;-74
2021/09/24 08:55:42;;;;;;;15.13;11.32;;;;;;;17.13;74.10;99626.81;5073128;28;20192;-72
2021/09/24 08:58:08;;;;;;;16.83;11.60;;;;;;;17.24;73.94;99632.22;5073567;28;20326;-73
2021/09/24 09:00:35;;;;;;;16.52;10.82;;;;;;;17.47;72.81;99640.28;5072486;28;20190;-73
2021/09/24 09:03:08;;;;;;;15.40;10.80;;;;;;;17.45;73.11;99626.78;5072948;28;20624;-72
2021/09/24 09:05:38;;;;;;;14.00;11.30;;;;;;;17.71;72.33;99627.25;5060519;28;20186;-74
2021/09/24 09:08:24;;;;;;;16.92;12.05;;;;;;;17.92;71.39;99627.25;5052695;28;20199;-75
2021/09/24 09:10:56;;;;;;;16.60;11.20;;;;;;;18.17;70.69;99621.50;5052961;28;20226;-75
2021/09/24 09:13:24;;;;;;;16.90;10.75;;;;;;;18.33;69.71;99624.56;5072269;28;20190;-74
2021/09/24 09:15:57;;;;;;;16.38;11.35;;;;;;;18.36;69.92;99627.03;5072615;28;20202;-73
2021/09/24 09:18:24;;;;;;;16.00;11.57;;;;;;;18.45;69.22;99628.91;5072885;28;20188;-74
2021/09/24 09:20:54;;;;;;;12.73;10.88;;;;;;;18.54;68.71;99625.34;5072129;28;20213;-74
2021/09/24 09:23:24;;;;;;;13.25;10.25;;;;;;;18.58;68.59;99628.66;5072920;28;20587;-73
2021/09/24 09:25:54;;;;;;;13.13;9.70;;;;;;;18.49;69.16;99633.06;5072103;28;20283;-73
2021/09/24 09:28:30;;;;;;;14.52;9.75;;;;;;;18.59;69.16;99621.31;5071812;28;20281;-74
2021/09/24 09:30:57;;;;;;;13.05;9.50;;;;;;;18.61;68.70;99620.22;5072631;28;20606;-74
2021/09/24 09:33:25;;;;;;;14.35;11.02;;;;;;;18.93;67.55;99630.91;5072547;28;20206;-73
2021/09/24 09:35:56;;;;;;;17.90;8.98;;;;;;;19.04;67.88;99620.84;5072160;28;20304;-74
2021/09/24 09:38:25;;;;;;;13.65;9.63;;;;;;;19.40;66.98;99626.59;5072028;28;20277;-73
2021/09/24 09:40:57;;;;;;;9.00;7.82;;;;;;;19.17;67.63;99622.31;5072186;28;20691;-74
2021/09/24 09:43:30;;;;;;;11.52;8.13;;;;;;;19.32;67.54;99621.88;5072258;28;20231;-73
2021/09/24 09:45:58;;;;;;;10.10;7.28;;;;;;;19.48;67.42;99621.28;5072378;28;20222;-74
2021/09/24 09:48:25;;;;;;;10.80;7.78;;;;;;;19.89;65.79;99619.22;5072481;28;20195;-74
2021/09/24 09:50:53;;;;;;;9.70;8.10;;;;;;;19.93;65.44;99624.22;5071814;28;20245;-74
2021/09/24 09:53:21;;;;;;;11.60;8.48;;;;;;;20.16;64.35;99621.13;5072576;28;20674;-73
2021/09/24 09:55:51;;;;;;;9.65;8.35;;;;;;;20.00;64.33;99608.94;5071955;28;20299;-74
2021/09/24 09:58:19;;;;;;;14.73;8.13;;;;;;;20.16;64.06;99612.91;5071911;28;20283;-74
2021/09/24 10:01:03;;;;;;;10.88;8.40;;;;;;;20.16;63.75;99613.78;5071425;28;20433;-74
2021/09/24 10:03:36;;;;;;;12.43;8.20;;;;;;;20.01;64.80;99615.25;5071448;28;20275;-73
2021/09/24 10:06:18;;;;;;;10.50;9.40;;;;;;;19.68;65.20;99620.22;5071838;28;20514;-73
2021/09/24 10:08:44;;;;;;;10.43;9.02;;;;;;;19.55;65.90;99615.06;5072038;28;20905;-73
2021/09/24 10:11:14;;;;;;;12.27;10.88;;;;;;;20.27;63.85;99611.88;5070762;28;20213;-73
2021/09/24 10:13:52;;;;;;;11.07;9.10;;;;;;;20.92;61.20;99614.56;5071223;28;20281;-73
2021/09/24 10:16:20;;;;;;;9.93;8.88;;;;;;;20.82;61.11;99609.13;5072038;28;20433;-73
2021/09/24 10:18:47;;;;;;;11.83;9.97;;;;;;;21.33;59.41;99602.09;5071306;28;20185;-73
2021/09/24 10:21:15;;;;;;;10.27;8.40;;;;;;;21.51;58.01;99604.84;5071684;28;20518;-73
2021/09/24 10:23:43;;;;;;;11.37;8.30;;;;;;;21.46;58.37;99609.94;5072736;28;20999;-72
2021/09/24 10:26:16;;;;;;;10.70;9.23;;;;;;;21.71;57.63;99602.75;5081727;28;20430;-74
2021/09/24 10:28:43;;;;;;;8.87;7.97;;;;;;;21.69;57.74;99593.00;5081321;28;20517;-72
2021/09/24 10:31:16;;;;;;;9.30;8.20;;;;;;;21.03;60.36;99600.63;5079217;28;20963;-72
2021/09/24 10:33:48;;;;;;;8.60;7.70;;;;;;;20.71;60.79;99607.47;5083799;28;20430;-72
2021/09/24 10:36:36;;;;;;;8.67;7.77;;;;;;;20.40;61.42;99604.19;5085248;28;20548;-74
2021/09/24 10:39:03;;;;;;;11.70;8.33;;;;;;;20.29;62.11;99605.25;5079338;28;20924;-74
2021/09/24 10:41:29;;;;;;;9.43;8.27;;;;;;;20.14;61.54;99604.00;5079679;28;20514;-73
2021/09/24 10:43:57;;;;;;;10.80;7.77;;;;;;;20.25;60.83;99606.53;5086221;28;20525;-73
2021/09/24 10:46:35;;;;;;;10.10;7.77;;;;;;;20.34;60.42;99604.78;5084652;28;20426;-72
2021/09/24 10:49:32;;;;;;;8.70;7.30;;;;;;;20.34;58.97;99600.16;5081340;28;20433;-73
2021/09/24 10:52:13;;;;;;;7.10;6.40;;;;;;;20.56;58.45;99601.66;5081644;28;20549;-74
2021/09/24 10:54:55;;;;;;;8.40;6.83;;;;;;;20.45;58.55;99599.09;5080989;28;20431;-74
2021/09/24 10:57:22;;;;;;;8.70;6.60;;;;;;;20.36;58.79;99592.69;5084345;28;20452;-74
2021/09/24 10:59:49;;;;;;;9.70;7.53;;;;;;;20.11;59.25;99596.97;5084987;28;20192;-73
2021/09/24 11:02:40;;;;;;;8.50;7.07;;;;;;;20.37;58.72;99594.41;5073386;28;20431;-71
2021/09/24 11:05:09;;;;;;;7.57;6.70;;;;;;;20.44;58.71;99593.78;5055585;28;20552;-72
2021/09/24 11:07:37;;;;;;;7.10;6.40;;;;;;;20.57;58.70;99592.44;5072235;28;20933;-73
2021/09/24 11:10:06;;;;;;;6.93;6.23;;;;;;;20.63;58.52;99593.72;5073795;28;20460;-73
2021/09/24 11:12:33;;;;;;;8.63;6.40;;;;;;;20.72;57.74;99590.03;5074099;28;20488;-73
2021/09/24 11:15:11;;;;;;;6.37;5.37;;;;;;;20.95;56.78;99587.72;5074839;28;20873;-74
2021/09/24 11:17:40;;;;;;;8.60;6.80;;;;;;;20.63;57.71;99588.25;5073645;28;20861;-72
2021/09/24 11:20:30;;;;;;;8.40;7.10;;;;;;;20.76;57.35;99586.00;5073823;28;20423;-73
2021/09/24 11:22:58;;;;;;;6.70;5.90;;;;;;;20.67;57.30;99583.31;5074164;28;20423;-73